createdAt,value
2018-10-15T00:00:20.228Z,97478.76
2018-10-15T00:01:24.809Z,97478.80
2018-10-15T00:02:30.999Z,97476.98
2018-10-15T00:03:36.406Z,97478.11
2018-10-15T00:04:44.022Z,97480.99
2018-10-15T00:05:51.534Z,97481.02
2018-10-15T00:06:57.514Z,97481.48
2018-10-15T00:08:02.099Z,97481.95
2018-10-15T00:09:08.366Z,97487.00
2018-10-15T00:10:12.896Z,97482.41
2018-10-15T00:11:17.588Z,97494.01
2018-10-15T00:12:22.946Z,97485.86
2018-10-15T00:13:28.441Z,97489.53
2018-10-15T00:14:33.615Z,97488.49
2018-10-15T00:15:38.309Z,97494.69
2018-10-15T00:16:43.501Z,97496.77
2018-10-15T00:17:48.180Z,97501.02
2018-10-15T00:18:52.829Z,97502.41
2018-10-15T00:19:57.905Z,97501.57
2018-10-15T00:21:02.438Z,97500.11
2018-10-15T00:22:07.289Z,97502.97
2018-10-15T00:23:11.896Z,97507.33
2018-10-15T00:24:16.321Z,97510.31
2018-10-15T00:25:24.223Z,97510.08
2018-10-15T00:26:30.872Z,97507.22
2018-10-15T00:27:35.567Z,97512.94
2018-10-15T00:28:41.417Z,97507.66
2018-10-15T00:29:46.401Z,97513.06
2018-10-15T00:30:51.470Z,97514.75
2018-10-15T00:31:57.062Z,97516.36
2018-10-15T00:33:03.437Z,97516.73
2018-10-15T00:34:08.841Z,97516.73
2018-10-15T00:35:14.550Z,97520.06
2018-10-15T00:36:19.305Z,97520.72
2018-10-15T00:37:23.864Z,97523.02
2018-10-15T00:38:30.489Z,97525.23
2018-10-15T00:39:35.747Z,97527.87
2018-10-15T00:40:43.606Z,97528.78
2018-10-15T00:41:48.393Z,97525.70
2018-10-15T00:42:53.283Z,97517.78
2018-10-15T00:43:58.470Z,97512.84
2018-10-15T00:45:03.511Z,97522.23
2018-10-15T00:46:09.011Z,97521.95
2018-10-15T00:47:14.573Z,97516.55
2018-10-15T00:48:19.088Z,97515.73
2018-10-15T00:49:25.664Z,97517.00
2018-10-15T00:50:30.086Z,97517.01
2018-10-15T00:51:36.077Z,97517.59
2018-10-15T00:52:41.103Z,97516.91
2018-10-15T00:53:45.568Z,97513.81
2018-10-15T00:54:50.079Z,97514.54
2018-10-15T00:55:54.504Z,97513.93
2018-10-15T00:56:58.897Z,97514.39
2018-10-15T00:58:03.855Z,97515.53
2018-10-15T00:59:09.564Z,97518.21
2018-10-15T01:00:16.412Z,97521.43
2018-10-15T01:01:20.804Z,97522.23
2018-10-15T01:02:25.287Z,97520.98
2018-10-15T01:03:29.759Z,97522.70
2018-10-15T01:04:34.328Z,97518.56
2018-10-15T01:05:39.049Z,97520.17
2018-10-15T01:06:43.487Z,97522.41
2018-10-15T01:07:48.876Z,97517.94
2018-10-15T01:08:54.350Z,97519.88
2018-10-15T01:09:58.839Z,97518.73
2018-10-15T01:11:03.626Z,97522.98
2018-10-15T01:12:08.327Z,97518.52
2018-10-15T01:13:12.741Z,97517.06
2018-10-15T01:14:17.436Z,97519.32
2018-10-15T01:15:21.842Z,97526.08
2018-10-15T01:16:29.561Z,97523.33
2018-10-15T01:17:34.569Z,97520.34
2018-10-15T01:18:42.655Z,97525.43
2018-10-15T01:19:47.054Z,97527.94
2018-10-15T01:20:51.448Z,97520.95
2018-10-15T01:21:56.660Z,97523.13
2018-10-15T01:23:02.003Z,97527.92
2018-10-15T01:24:06.482Z,97532.96
2018-10-15T01:25:12.005Z,97525.07
2018-10-15T01:26:17.496Z,97522.83
2018-10-15T01:27:21.977Z,97518.75
2018-10-15T01:28:27.002Z,97526.16
2018-10-15T01:29:31.378Z,97516.77
2018-10-15T01:30:35.775Z,97512.46
2018-10-15T01:31:41.378Z,97521.29
2018-10-15T01:32:45.886Z,97520.83
2018-10-15T01:33:50.740Z,97512.20
2018-10-15T01:34:56.052Z,97509.66
2018-10-15T01:36:03.546Z,97518.18
2018-10-15T01:37:23.719Z,97519.09
2018-10-15T01:38:30.958Z,97513.13
2018-10-15T01:39:37.960Z,97511.03
2018-10-15T01:40:44.557Z,97520.66
2018-10-15T01:41:50.744Z,97520.17
2018-10-15T01:42:57.600Z,97512.62
2018-10-15T02:00:03.809Z,97510.23
2018-10-15T02:01:10.468Z,97516.50
2018-10-15T02:02:16.461Z,97511.44
2018-10-15T02:03:23.521Z,97512.38
2018-10-15T02:04:28.353Z,97508.37
2018-10-15T02:05:32.796Z,97512.89
2018-10-15T02:06:38.683Z,97513.20
2018-10-15T02:07:44.364Z,97507.95
2018-10-15T02:08:49.548Z,97508.41
2018-10-15T02:09:55.105Z,97513.66
2018-10-15T02:10:59.747Z,97508.52
2018-10-15T02:12:04.179Z,97510.02
2018-10-15T02:13:09.079Z,97507.61
2018-10-15T02:14:13.902Z,97504.42
2018-10-15T02:15:26.366Z,97506.27
2018-10-15T02:16:30.961Z,97507.28
2018-10-15T02:17:35.381Z,97504.06
2018-10-15T02:18:40.690Z,97502.30
2018-10-15T02:19:46.940Z,97502.62
2018-10-15T02:20:51.728Z,97497.94
2018-10-15T02:21:58.023Z,97504.75
2018-10-15T02:23:02.592Z,97502.83
2018-10-15T02:24:07.563Z,97498.81
2018-10-15T02:25:12.096Z,97506.78
2018-10-15T02:26:18.013Z,97506.22
2018-10-15T02:27:23.296Z,97505.77
2018-10-15T02:28:28.685Z,97505.41
2018-10-15T02:29:36.494Z,97513.81
2018-10-15T02:30:41.602Z,97513.15
2018-10-15T02:31:46.288Z,97511.22
2018-10-15T02:32:52.542Z,97510.06
2018-10-15T02:33:57.090Z,97508.24
2018-10-15T02:35:01.828Z,97509.70
2018-10-15T02:36:07.041Z,97512.91
2018-10-15T02:37:11.597Z,97515.28
2018-10-15T02:38:16.565Z,97511.99
2018-10-15T02:39:21.494Z,97510.03
2018-10-15T02:40:26.016Z,97515.42
2018-10-15T02:41:30.558Z,97511.33
2018-10-15T02:42:35.190Z,97510.59
2018-10-15T02:43:39.691Z,97511.84
2018-10-15T02:44:44.215Z,97513.56
2018-10-15T02:45:49.062Z,97512.38
2018-10-15T02:46:53.578Z,97509.70
2018-10-15T02:47:58.068Z,97509.39
2018-10-15T02:49:02.629Z,97508.73
2018-10-15T02:50:07.644Z,97511.45
2018-10-15T02:51:12.215Z,97512.16
2018-10-15T02:52:17.003Z,97510.20
2018-10-15T02:53:21.464Z,97513.31
2018-10-15T02:54:25.938Z,97514.60
2018-10-15T02:55:30.477Z,97510.72
2018-10-15T02:56:35.158Z,97511.45
2018-10-15T02:57:39.647Z,97508.45
2018-10-15T02:58:45.247Z,97504.78
2018-10-15T02:59:50.626Z,97503.28
2018-10-15T03:00:55.066Z,97502.83
2018-10-15T03:01:59.694Z,97510.09
2018-10-15T03:03:04.331Z,97506.31
2018-10-15T03:04:23.685Z,97504.91
2018-10-15T03:05:28.261Z,97509.84
2018-10-15T03:06:33.194Z,97502.54
2018-10-15T03:07:37.602Z,97510.80
2018-10-15T03:08:41.997Z,97507.72
2018-10-15T03:09:46.416Z,97507.44
2018-10-15T03:10:51.134Z,97508.39
2018-10-15T03:11:55.529Z,97508.73
2018-10-15T03:12:59.964Z,97513.36
2018-10-15T03:14:04.345Z,97509.58
2018-10-15T03:15:09.792Z,97511.54
2018-10-15T03:16:14.434Z,97509.33
2018-10-15T03:17:20.716Z,97510.34
2018-10-15T03:18:26.117Z,97509.50
2018-10-15T03:19:31.094Z,97512.30
2018-10-15T03:20:35.672Z,97511.00
2018-10-15T03:21:40.590Z,97513.17
2018-10-15T03:22:45.135Z,97508.59
2018-10-15T03:23:50.086Z,97509.00
2018-10-15T03:24:54.458Z,97507.74
2018-10-15T03:25:58.893Z,97504.45
2018-10-15T03:27:03.301Z,97501.64
2018-10-15T03:28:07.737Z,97498.38
2018-10-15T03:29:12.912Z,97504.97
2018-10-15T03:30:17.766Z,97508.20
2018-10-15T03:31:22.482Z,97505.09
2018-10-15T03:32:27.721Z,97506.70
2018-10-15T03:33:32.090Z,97507.58
2018-10-15T03:34:36.492Z,97511.51
2018-10-15T03:35:41.245Z,97511.00
2018-10-15T03:36:45.779Z,97513.81
2018-10-15T03:37:50.263Z,97520.08
2018-10-15T03:38:54.692Z,97518.27
2018-10-15T03:39:59.203Z,97516.66
2018-10-15T03:41:04.257Z,97506.92
2018-10-15T03:42:09.438Z,97515.63
2018-10-15T03:43:14.110Z,97511.42
2018-10-15T03:44:18.644Z,97513.42
2018-10-15T03:45:23.279Z,97516.19
2018-10-15T03:46:27.865Z,97516.09
2018-10-15T03:47:32.293Z,97515.50
2018-10-15T03:48:37.062Z,97514.70
2018-10-15T03:49:41.444Z,97513.48
2018-10-15T03:50:45.868Z,97516.45
2018-10-15T03:51:51.663Z,97513.23
2018-10-15T03:52:56.116Z,97517.89
2018-10-15T03:54:00.531Z,97518.20
2018-10-15T03:55:05.538Z,97520.31
2018-10-15T03:56:09.955Z,97515.93
2018-10-15T03:57:14.366Z,97518.70
2018-10-15T03:58:18.807Z,97517.94
2018-10-15T03:59:23.608Z,97520.45
2018-10-15T04:00:27.994Z,97521.99
2018-10-15T04:01:32.657Z,97521.19
2018-10-15T04:02:37.198Z,97519.81
2018-10-15T04:03:42.023Z,97518.40
2018-10-15T04:04:46.472Z,97518.30
2018-10-15T04:05:50.875Z,97514.73
2018-10-15T04:06:55.272Z,97514.58
2018-10-15T04:07:59.937Z,97515.83
2018-10-15T04:09:05.228Z,97522.38
2018-10-15T04:10:09.603Z,97517.70
2018-10-15T04:11:14.037Z,97524.84
2018-10-15T04:12:18.412Z,97525.55
2018-10-15T04:13:22.937Z,97524.28
2018-10-15T04:14:27.716Z,97528.36
2018-10-15T04:15:32.157Z,97525.95
2018-10-15T04:16:36.544Z,97531.53
2018-10-15T04:17:40.977Z,97526.92
2018-10-15T04:18:45.477Z,97528.67
2018-10-15T04:19:49.851Z,97530.19
2018-10-15T04:20:54.273Z,97534.82
2018-10-15T04:21:58.741Z,97529.58
2018-10-15T04:23:03.278Z,97530.48
2018-10-15T04:24:07.809Z,97531.59
2018-10-15T04:25:12.237Z,97532.92
2018-10-15T04:26:16.686Z,97535.62
2018-10-15T04:27:21.396Z,97528.72
2018-10-15T04:28:25.857Z,97539.19
2018-10-15T04:29:30.293Z,97535.67
2018-10-15T04:30:34.765Z,97530.86
2018-10-15T04:31:39.223Z,97539.15
2018-10-15T04:32:43.607Z,97535.38
2018-10-15T04:33:48.308Z,97538.34
2018-10-15T04:34:52.701Z,97538.78
2018-10-15T04:35:57.110Z,97540.64
2018-10-15T04:37:01.502Z,97535.22
2018-10-15T04:38:05.992Z,97530.39
2018-10-15T04:39:10.849Z,97532.30
2018-10-15T04:40:15.841Z,97537.39
2018-10-15T04:41:20.516Z,97531.66
2018-10-15T04:42:25.077Z,97530.30
2018-10-15T04:43:29.481Z,97538.13
2018-10-15T04:44:34.194Z,97530.30
2018-10-15T04:45:38.701Z,97531.64
2018-10-15T04:46:44.488Z,97533.95
2018-10-15T04:47:48.937Z,97533.75
2018-10-15T04:48:53.397Z,97531.73
2018-10-15T04:50:00.949Z,97532.13
2018-10-15T04:51:05.441Z,97535.76
2018-10-15T04:52:09.889Z,97536.97
2018-10-15T04:53:14.595Z,97534.70
2018-10-15T04:54:19.027Z,97534.15
2018-10-15T04:55:23.519Z,97534.45
2018-10-15T04:56:29.178Z,97540.71
2018-10-15T04:57:33.590Z,97545.69
2018-10-15T04:58:38.072Z,97539.05
2018-10-15T04:59:42.941Z,97538.30
2018-10-15T05:00:47.492Z,97538.03
2018-10-15T05:01:51.959Z,97540.56
2018-10-15T05:02:56.464Z,97542.88
2018-10-15T05:04:01.226Z,97540.36
2018-10-15T05:05:06.137Z,97546.93
2018-10-15T05:06:11.130Z,97546.14
2018-10-15T05:07:15.588Z,97551.56
2018-10-15T05:08:20.008Z,97552.78
2018-10-15T05:09:24.902Z,97548.59
2018-10-15T05:10:29.648Z,97552.67
2018-10-15T05:11:35.150Z,97550.91
2018-10-15T05:12:40.896Z,97550.80
2018-10-15T05:13:45.725Z,97551.21
2018-10-15T05:14:50.293Z,97547.91
2018-10-15T05:15:56.566Z,97550.35
2018-10-15T05:17:03.116Z,97553.02
2018-10-15T05:18:09.398Z,97557.66
2018-10-15T05:19:14.409Z,97557.70
2018-10-15T05:20:20.215Z,97558.16
2018-10-15T05:21:24.938Z,97557.97
2018-10-15T05:22:29.267Z,97560.67
2018-10-15T05:23:33.910Z,97560.22
2018-10-15T05:24:38.373Z,97565.16
2018-10-15T05:25:43.337Z,97562.53
2018-10-15T05:26:49.389Z,97560.68
2018-10-15T05:27:55.169Z,97566.09
2018-10-15T05:28:59.642Z,97571.39
2018-10-15T05:30:04.725Z,97567.06
2018-10-15T05:31:09.112Z,97569.37
2018-10-15T05:32:13.819Z,97570.08
2018-10-15T05:46:43.669Z,97588.62
2018-10-15T05:47:48.455Z,97592.76
2018-10-15T05:48:53.406Z,97596.88
2018-10-15T05:49:58.745Z,97594.63
2018-10-15T05:51:04.348Z,97596.08
2018-10-15T05:52:09.832Z,97598.34
2018-10-15T05:53:14.791Z,97604.08
2018-10-15T05:54:19.293Z,97603.53
2018-10-15T05:55:25.409Z,97605.66
2018-10-15T05:56:30.066Z,97606.56
2018-10-15T05:57:34.796Z,97609.69
2018-10-15T05:58:40.427Z,97609.42
2018-10-15T05:59:45.699Z,97609.78
2018-10-15T06:00:50.924Z,97616.00
2018-10-15T06:01:55.437Z,97620.12
2018-10-15T06:02:59.965Z,97625.86
2018-10-15T06:04:05.552Z,97620.27
2018-10-15T06:05:11.238Z,97622.20
2018-10-15T06:06:15.743Z,97626.52
2018-10-15T06:07:21.958Z,97626.22
2018-10-15T06:08:27.722Z,97629.00
2018-10-15T06:09:32.178Z,97629.25
2018-10-15T06:10:36.646Z,97625.13
2018-10-15T06:11:41.585Z,97630.86
2018-10-15T06:12:47.823Z,97631.06
2018-10-15T06:13:52.318Z,97632.58
2018-10-15T06:14:56.850Z,97633.45
2018-10-15T06:16:02.279Z,97637.66
2018-10-15T06:17:07.488Z,97642.34
2018-10-15T06:18:12.367Z,97643.70
2018-10-15T06:19:17.621Z,97635.80
2018-10-15T06:20:22.484Z,97643.86
2018-10-15T06:21:28.363Z,97640.95
2018-10-15T06:22:33.060Z,97645.72
2018-10-15T06:23:38.438Z,97647.98
2018-10-15T06:24:44.181Z,97651.20
2018-10-15T06:25:49.928Z,97650.56
2018-10-15T06:26:55.259Z,97651.23
2018-10-15T06:27:59.731Z,97646.98
2018-10-15T06:29:04.581Z,97649.50
2018-10-15T06:30:10.156Z,97656.60
2018-10-15T06:31:15.545Z,97654.19
2018-10-15T06:32:19.999Z,97657.05
2018-10-15T06:33:26.535Z,97655.14
2018-10-15T06:34:31.532Z,97655.30
2018-10-15T06:35:36.031Z,97654.44
2018-10-15T06:36:40.520Z,97662.84
2018-10-15T06:37:46.282Z,97659.97
2018-10-15T06:38:50.797Z,97660.34
2018-10-15T06:39:55.737Z,97657.66
2018-10-15T06:41:00.598Z,97657.79
2018-10-15T06:42:05.323Z,97661.55
2018-10-15T06:43:11.350Z,97664.33
2018-10-15T06:44:18.902Z,97663.28
2018-10-15T06:45:23.484Z,97662.77
2018-10-15T06:46:28.084Z,97665.59
2018-10-15T06:47:33.958Z,97669.34
2018-10-15T06:48:39.213Z,97661.48
2018-10-15T06:49:43.756Z,97661.08
2018-10-15T06:50:49.500Z,97665.27
2018-10-15T06:51:54.047Z,97666.66
2018-10-15T06:52:58.574Z,97668.39
2018-10-15T06:54:03.265Z,97666.80
2018-10-15T06:55:08.032Z,97670.39
2018-10-15T06:56:12.540Z,97660.89
2018-10-15T06:57:19.052Z,97662.98
2018-10-15T06:58:23.620Z,97670.73
2018-10-15T06:59:28.261Z,97663.89
2018-10-15T07:00:33.424Z,97660.98
2018-10-15T07:01:38.020Z,97668.87
2018-10-15T07:02:43.269Z,97660.54
2018-10-15T07:03:48.135Z,97669.99
2018-10-15T07:04:52.751Z,97669.60
2018-10-15T07:05:57.473Z,97667.22
2018-10-15T07:07:02.193Z,97667.98
2018-10-15T07:08:07.781Z,97671.41
2018-10-15T07:09:13.432Z,97670.86
2018-10-15T07:10:19.025Z,97675.34
2018-10-15T07:11:23.631Z,97677.55
2018-10-15T07:12:28.083Z,97674.02
2018-10-15T07:13:32.718Z,97682.25
2018-10-15T07:14:37.583Z,97675.45
2018-10-15T07:15:43.057Z,97682.17
2018-10-15T07:16:47.950Z,97679.91
2018-10-15T07:17:52.958Z,97676.84
2018-10-15T07:18:58.454Z,97678.72
2018-10-15T07:20:03.641Z,97677.30
2018-10-15T07:21:08.298Z,97677.30
2018-10-15T07:22:14.485Z,97686.68
2018-10-15T07:23:22.311Z,97686.36
2018-10-15T07:24:27.200Z,97680.53
2018-10-15T07:25:37.637Z,97683.80
2018-10-15T07:26:47.132Z,97692.42
2018-10-15T07:27:54.644Z,97692.91
2018-10-15T07:29:01.561Z,97690.79
2018-10-15T07:30:10.604Z,97694.45
2018-10-15T07:31:15.424Z,97697.04
2018-10-15T07:32:24.580Z,97702.45
2018-10-15T07:33:36.905Z,97703.56
2018-10-15T07:34:42.421Z,97699.63
2018-10-15T07:35:47.885Z,97704.69
2018-10-15T07:36:54.837Z,97704.58
2018-10-15T07:37:59.394Z,97702.62
2018-10-15T07:39:10.296Z,97703.58
2018-10-15T07:40:15.221Z,97705.16
2018-10-15T07:41:22.510Z,97700.72
2018-10-15T07:42:31.585Z,97702.94
2018-10-15T07:43:36.147Z,97708.79
2018-10-15T07:44:40.806Z,97700.53
2018-10-15T07:45:47.006Z,97704.96
2018-10-15T07:46:52.873Z,97704.52
2018-10-15T07:47:59.136Z,97708.54
2018-10-15T07:49:05.989Z,97706.52
2018-10-15T07:50:18.865Z,97707.98
2018-10-15T07:51:31.480Z,97713.91
2018-10-15T07:52:39.425Z,97716.94
2018-10-15T07:53:46.735Z,97714.58
2018-10-15T07:54:54.424Z,97714.58
2018-10-15T07:56:01.137Z,97721.83
2018-10-15T07:57:07.237Z,97717.19
2018-10-15T07:58:13.454Z,97723.33
2018-10-15T07:59:19.663Z,97723.80
2018-10-15T08:00:27.572Z,97718.95
2018-10-15T08:01:33.936Z,97722.56
2018-10-15T08:02:38.510Z,97719.06
2018-10-15T08:03:46.944Z,97722.59
2018-10-15T08:04:53.745Z,97727.75
2018-10-15T08:05:59.335Z,97724.23
2018-10-15T08:07:04.946Z,97727.59
2018-10-15T08:08:10.358Z,97722.14
2018-10-15T08:09:17.374Z,97722.73
2018-10-15T08:10:36.544Z,97718.88
2018-10-15T08:11:57.107Z,97728.48
2018-10-15T08:13:05.828Z,97728.53
2018-10-15T08:14:12.439Z,97727.92
2018-10-15T08:15:18.099Z,97731.23
2018-10-15T08:16:22.871Z,97732.89
2018-10-15T08:17:28.153Z,97733.75
2018-10-15T08:18:33.476Z,97734.00
2018-10-15T08:19:40.405Z,97728.59
2018-10-15T08:20:46.289Z,97731.59
2018-10-15T08:21:51.690Z,97731.98
2018-10-15T08:22:56.279Z,97732.84
2018-10-15T08:24:01.636Z,97732.58
2018-10-15T08:25:06.520Z,97733.94
2018-10-15T08:26:12.515Z,97731.47
2018-10-15T08:27:18.261Z,97734.02
2018-10-15T08:28:23.117Z,97735.20
2018-10-15T08:29:28.287Z,97729.13
2018-10-15T08:30:34.640Z,97731.64
2018-10-15T08:31:39.320Z,97731.91
2018-10-15T08:32:45.309Z,97730.80
2018-10-15T08:33:51.322Z,97734.80
2018-10-15T08:34:56.411Z,97730.00
2018-10-15T08:36:03.529Z,97727.13
2018-10-15T08:37:08.914Z,97722.56
2018-10-15T08:38:29.656Z,97725.45
2018-10-15T08:39:35.041Z,97728.41
2018-10-15T08:40:39.782Z,97733.83
2018-10-15T08:42:07.762Z,97734.48
2018-10-15T08:43:15.731Z,97728.33
2018-10-15T08:44:20.615Z,97731.31
2018-10-15T08:45:26.179Z,97733.70
2018-10-15T08:46:31.459Z,97725.21
2018-10-15T08:47:36.040Z,97726.58
2018-10-15T08:48:41.033Z,97730.94
2018-10-15T08:49:45.617Z,97727.95
2018-10-15T08:50:52.352Z,97731.65
2018-10-15T08:51:59.178Z,97723.69
2018-10-15T08:53:05.730Z,97732.64
2018-10-15T08:54:12.445Z,97728.50
2018-10-15T08:55:19.307Z,97730.68
2018-10-15T08:56:25.367Z,97729.91
2018-10-15T08:57:32.737Z,97727.27
2018-10-15T08:58:40.241Z,97725.92
2018-10-15T08:59:45.218Z,97726.50
2018-10-15T09:00:50.368Z,97727.61
2018-10-15T09:01:57.438Z,97722.61
2018-10-15T09:03:02.094Z,97722.03
2018-10-15T09:04:08.239Z,97723.09
2018-10-15T09:05:14.913Z,97725.29
2018-10-15T09:06:21.387Z,97721.68
2018-10-15T09:07:27.302Z,97726.44
2018-10-15T09:08:33.441Z,97726.80
2018-10-15T09:09:42.105Z,97720.44
2018-10-15T09:10:48.242Z,97715.92
2018-10-15T09:11:54.624Z,97719.91
2018-10-15T09:13:04.072Z,97718.52
2018-10-15T09:14:11.653Z,97716.69
2018-10-15T09:15:20.735Z,97720.44
2018-10-15T09:16:31.965Z,97722.98
2018-10-15T09:17:37.221Z,97722.58
2018-10-15T09:18:42.421Z,97719.59
2018-10-15T09:19:48.226Z,97718.22
2018-10-15T09:20:53.808Z,97722.34
2018-10-15T09:22:03.338Z,97723.69
2018-10-15T09:23:08.609Z,97724.69
2018-10-15T09:24:14.242Z,97721.01
2018-10-15T09:25:20.570Z,97722.03
2018-10-15T09:26:28.117Z,97726.36
2018-10-15T09:27:33.978Z,97726.95
2018-10-15T09:28:43.644Z,97726.52
2018-10-15T09:29:49.570Z,97729.29
2018-10-15T09:30:56.681Z,97732.86
2018-10-15T09:32:01.915Z,97728.46
2018-10-15T09:33:06.895Z,97728.22
2018-10-15T09:34:12.663Z,97734.14
2018-10-15T09:35:18.911Z,97730.63
2018-10-15T09:36:23.545Z,97726.63
2018-10-15T09:37:30.036Z,97723.56
2018-10-15T09:38:35.305Z,97728.26
2018-10-15T09:39:41.318Z,97730.37
2018-10-15T09:40:45.912Z,97727.72
2018-10-15T09:41:50.685Z,97727.53
2018-10-15T09:42:58.598Z,97725.38
2018-10-15T09:44:03.244Z,97731.69
2018-10-15T09:45:08.528Z,97731.49
2018-10-15T09:46:13.363Z,97731.34
2018-10-15T09:47:23.516Z,97739.45
2018-10-15T09:48:29.112Z,97733.04
2018-10-15T09:49:34.324Z,97734.20
2018-10-15T09:50:44.899Z,97733.20
2018-10-15T09:51:50.883Z,97740.21
2018-10-15T09:52:58.461Z,97733.35
2018-10-15T09:54:05.806Z,97738.89
2018-10-15T09:55:15.568Z,97739.59
2018-10-15T09:56:21.485Z,97736.79
2018-10-15T09:57:29.706Z,97740.61
2018-10-15T09:58:36.399Z,97736.23
2018-10-15T09:59:42.787Z,97742.03
2018-10-15T10:00:53.401Z,97745.17
2018-10-15T10:02:04.670Z,97741.77
2018-10-15T10:03:10.585Z,97734.37
2018-10-15T10:04:18.678Z,97738.73
2018-10-15T10:05:23.882Z,97732.27
2018-10-15T10:06:28.542Z,97738.37
2018-10-15T10:07:34.450Z,97735.47
2018-10-15T10:09:55.656Z,97727.97
2018-10-15T10:11:00.742Z,97732.87
2018-10-15T10:12:07.894Z,97737.14
2018-10-15T10:13:14.625Z,97734.29
2018-10-15T10:14:24.517Z,97736.14
2018-10-15T10:15:32.133Z,97732.08
2018-10-15T10:16:37.725Z,97733.28
2018-10-15T10:17:43.448Z,97739.23
2018-10-15T10:18:50.137Z,97734.66
2018-10-15T10:19:54.960Z,97737.05
2018-10-15T10:21:00.264Z,97730.20
2018-10-15T10:22:05.975Z,97727.72
2018-10-15T10:23:12.717Z,97735.63
2018-10-15T10:24:17.395Z,97733.86
2018-10-15T10:28:21.038Z,97727.45
2018-10-15T10:29:34.831Z,97723.45
2018-10-15T10:32:14.489Z,97720.41
2018-10-15T10:46:02.004Z,97720.74
2018-10-15T10:47:10.606Z,97716.72
2018-10-15T10:48:17.853Z,97718.48
2018-10-15T10:49:23.354Z,97716.97
2018-10-15T10:51:42.973Z,97726.56
2018-10-15T10:52:48.796Z,97724.25
2018-10-15T10:54:00.350Z,97718.23
2018-10-15T10:55:09.998Z,97714.92
2018-10-15T10:56:21.386Z,97724.81
2018-10-15T10:57:33.152Z,97727.45
2018-10-15T10:58:47.365Z,97725.39
2018-10-15T10:59:58.411Z,97720.59
2018-10-15T11:01:06.131Z,97712.81
2018-10-15T11:02:11.782Z,97720.03
2018-10-15T11:03:16.462Z,97710.87
2018-10-15T11:04:22.595Z,97714.53
2018-10-15T11:05:27.571Z,97713.20
2018-10-15T11:06:33.074Z,97706.36
2018-10-15T11:07:39.798Z,97704.41
2018-10-15T11:08:47.972Z,97704.22
2018-10-15T11:09:52.755Z,97707.87
2018-10-15T11:11:03.440Z,97702.22
2018-10-15T11:12:19.765Z,97698.86
2018-10-15T11:13:32.585Z,97701.59
2018-10-15T11:14:46.207Z,97693.23
2018-10-15T11:15:55.587Z,97703.57
2018-10-15T11:17:07.268Z,97699.56
2018-10-15T11:18:14.724Z,97703.19
2018-10-15T11:24:21.666Z,97699.06
2018-10-15T11:25:26.954Z,97700.95
2018-10-15T11:26:32.102Z,97701.89
2018-10-15T11:27:38.499Z,97700.63
2018-10-15T11:28:43.342Z,97699.84
2018-10-15T11:29:49.750Z,97704.03
2018-10-15T11:30:59.402Z,97700.33
2018-10-15T11:32:05.243Z,97699.83
2018-10-15T11:33:11.186Z,97707.91
2018-10-15T11:34:17.966Z,97703.95
2018-10-15T11:35:24.069Z,97706.95
2018-10-15T11:36:30.166Z,97699.87
2018-10-15T11:37:38.662Z,97705.34
2018-10-15T11:38:44.208Z,97699.16
2018-10-15T11:39:56.618Z,97692.78
2018-10-15T11:41:03.942Z,97692.62
2018-10-15T11:42:08.727Z,97691.57
2018-10-15T11:43:15.061Z,97684.48
2018-10-15T11:44:21.702Z,97683.30
2018-10-15T11:45:28.759Z,97677.57
2018-10-15T11:46:38.715Z,97678.72
2018-10-15T11:47:46.522Z,97675.61
2018-10-15T11:48:52.185Z,97674.65
2018-10-15T11:49:59.408Z,97676.28
2018-10-15T11:51:05.177Z,97676.17
2018-10-15T11:52:11.609Z,97671.97
2018-10-15T11:53:20.050Z,97673.65
2018-10-15T11:54:30.003Z,97662.16
2018-10-15T11:55:39.126Z,97669.30
2018-10-15T11:56:46.304Z,97670.30
2018-10-15T11:58:00.335Z,97663.67
2018-10-15T11:59:09.830Z,97664.63
2018-10-15T12:00:18.650Z,97663.33
2018-10-15T12:01:23.696Z,97662.64
2018-10-15T12:02:30.649Z,97657.16
2018-10-15T12:03:36.694Z,97657.58
2018-10-15T12:04:46.500Z,97662.84
2018-10-15T12:05:51.959Z,97664.84
2018-10-15T12:06:57.151Z,97662.10
2018-10-15T12:08:01.708Z,97664.93
2018-10-15T12:09:08.097Z,97659.41
2018-10-15T12:10:13.408Z,97660.59
2018-10-15T12:11:20.455Z,97669.26
2018-10-15T12:12:24.990Z,97667.53
2018-10-15T12:13:29.484Z,97658.97
2018-10-15T12:14:35.387Z,97660.74
2018-10-15T12:15:41.739Z,97662.88
2018-10-15T12:16:47.148Z,97661.95
2018-10-15T12:17:51.976Z,97658.66
2018-10-15T12:18:56.436Z,97660.75
2018-10-15T12:20:07.360Z,97661.67
2018-10-15T12:21:12.083Z,97655.34
2018-10-15T12:22:17.194Z,97661.48
2018-10-15T12:23:21.896Z,97659.27
2018-10-15T12:24:26.825Z,97661.02
2018-10-15T12:25:31.992Z,97662.09
2018-10-15T12:26:36.928Z,97650.95
2018-10-15T12:27:45.431Z,97658.03
2018-10-15T12:28:52.209Z,97656.15
2018-10-15T12:29:59.739Z,97647.38
2018-10-15T12:31:06.937Z,97650.58
2018-10-15T12:32:13.353Z,97653.64
2018-10-15T12:33:17.985Z,97652.23
2018-10-15T12:34:22.881Z,97650.82
2018-10-15T12:35:28.551Z,97648.09
2018-10-15T12:36:34.450Z,97642.48
2018-10-15T12:37:40.279Z,97648.45
2018-10-15T12:38:46.667Z,97651.30
2018-10-15T12:39:53.814Z,97652.10
2018-10-15T12:40:58.596Z,97649.73
2018-10-15T12:42:03.109Z,97644.19
2018-10-15T12:43:10.341Z,97647.23
2018-10-15T12:44:15.443Z,97643.33
2018-10-15T12:45:26.131Z,97642.41
2018-10-15T12:46:35.977Z,97648.66
2018-10-15T12:47:56.729Z,97647.68
2018-10-15T12:49:05.071Z,97646.91
2018-10-15T12:50:13.190Z,97644.83
2018-10-15T12:51:18.369Z,97645.61
2018-10-15T12:52:22.970Z,97649.17
2018-10-15T12:53:28.029Z,97650.25
2018-10-15T12:54:34.506Z,97651.98
2018-10-15T12:55:40.022Z,97641.70
2018-10-15T12:56:46.561Z,97638.77
2018-10-15T12:57:51.105Z,97643.52
2018-10-15T12:58:57.419Z,97643.86
2018-10-15T13:00:09.365Z,97644.88
2018-10-15T13:01:15.473Z,97647.58
2018-10-15T13:02:22.276Z,97647.23
2018-10-15T13:03:28.358Z,97640.23
2018-10-15T13:04:33.595Z,97636.73
2018-10-15T13:05:43.442Z,97647.16
2018-10-15T13:06:48.507Z,97643.05
2018-10-15T13:07:55.505Z,97637.48
2018-10-15T13:09:13.846Z,97642.59
2018-10-15T13:12:01.286Z,97645.58
2018-10-15T13:13:16.676Z,97645.11
2018-10-15T13:14:44.371Z,97646.91
2018-10-15T13:15:52.293Z,97645.87
2018-10-15T13:16:59.296Z,97638.98
2018-10-15T13:18:04.379Z,97637.01
2018-10-15T13:19:10.947Z,97646.59
2018-10-15T13:20:15.484Z,97649.52
2018-10-15T13:21:29.806Z,97644.84
2018-10-15T13:22:35.827Z,97646.63
2018-10-15T13:23:40.517Z,97649.11
2018-10-15T13:24:48.727Z,97651.31
2018-10-15T13:25:54.417Z,97650.91
2018-10-15T13:26:58.935Z,97649.78
2018-10-15T13:28:05.341Z,97649.72
2018-10-15T13:29:13.629Z,97646.84
2018-10-15T13:30:18.951Z,97649.45
2018-10-15T13:31:30.125Z,97648.14
2018-10-15T13:32:36.263Z,97652.22
2018-10-15T13:33:43.744Z,97654.25
2018-10-15T13:34:50.365Z,97644.94
2018-10-15T13:35:54.919Z,97645.61
2018-10-15T13:36:59.937Z,97646.08
2018-10-15T13:38:07.364Z,97643.89
2018-10-15T13:39:16.075Z,97641.95
2018-10-15T13:40:23.527Z,97645.29
2018-10-15T13:41:29.077Z,97641.42
2018-10-15T13:42:34.602Z,97642.79
2018-10-15T13:43:40.299Z,97651.81
2018-10-15T13:44:47.270Z,97648.44
2018-10-15T13:45:53.694Z,97643.97
2018-10-15T13:46:59.529Z,97641.99
2018-10-15T13:48:04.557Z,97638.26
2018-10-15T13:49:11.250Z,97643.70
2018-10-15T13:50:16.355Z,97642.91
2018-10-15T13:51:22.308Z,97647.82